Time;durP1;ratioP1;P1;durP2;ratioP2;P2;SDS_P1;SDS_P2;PMS_P1;PMS_P2;Temp;Humidity;BMP_temperature;BMP_pressure;BME280_temperature;BME280_humidity;BME280_pressure;Samples;Min_cycle;Max_cycle;Signal;HPM_P1;HPM_P2
2023/05/31 00:00:53;;;;;;;;;;;;;;;;;;1913203;28;7104;-65
2023/05/31 00:01:50;;;;;;;;;;;;;;;;;;1912604;28;7009;-64
2023/05/31 00:02:48;;;;;;;;;;;;;;;;;;1913123;28;7025;-66
2023/05/31 00:03:45;;;;;;;;;;;;;;;;;;1913400;28;7009;-64
2023/05/31 00:04:43;;;;;;;;;;;;;;;;;;1913559;28;8003;-65
2023/05/31 00:05:40;;;;;;;;;;;;;;;;;;1912983;28;7020;-63
2023/05/31 00:06:38;;;;;;;;;;;;;;;;;;1913574;28;8046;-64
2023/05/31 00:07:35;;;;;;;;;;;;;;;;;;1911031;28;7109;-66
2023/05/31 00:08:33;;;;;;;;;;;;;;;;;;1912853;28;7028;-66
2023/05/31 00:09:30;;;;;;;;;;;;;;;;;;1911801;28;7144;-64
2023/05/31 00:10:27;;;;;;;;;;;;;;;;;;1909939;28;7125;-65
2023/05/31 00:11:26;;;;;;;;;;;;;;;;;;1913291;28;7792;-66
2023/05/31 00:12:23;;;;;;;;;;;;;;;;;;1913372;28;7009;-65
2023/05/31 00:13:21;;;;;;;;;;;;;;;;;;1913371;28;8077;-65
2023/05/31 00:14:18;;;;;;;;;;;;;;;;;;1913225;28;7212;-64
2023/05/31 00:15:15;;;;;;;;;;;;;;;;;;1913357;28;7029;-64
2023/05/31 00:16:13;;;;;;;;;;;;;;;;;;1912438;28;7053;-64
2023/05/31 00:17:31;;;;;;;;;;;;;;;;;;1912738;28;7336;-64
2023/05/31 00:18:46;;;;;;;;;;;;;;;;;;1910608;28;7009;-64
2023/05/31 00:19:44;;;;;;;;;;;;;;;;;;1912871;28;7017;-64
2023/05/31 00:20:41;;;;;;;;;;;;;;;;;;1912407;28;7104;-64
2023/05/31 00:21:39;;;;;;;;;;;;;;;;;;1913569;28;7009;-65
2023/05/31 00:22:36;;;;;;;;;;;;;;;;;;1913199;28;7124;-66
2023/05/31 00:23:34;;;;;;;;;;;;;;;;;;1912803;28;7092;-66
2023/05/31 00:24:31;;;;;;;;;;;;;;;;;;1912661;28;7421;-66
2023/05/31 00:25:28;;;;;;;;;;;;;;;;;;1912739;28;7005;-65
2023/05/31 00:26:26;;;;;;;;;;;;;;;;;;1912648;28;7116;-66
2023/05/31 00:27:23;;;;;;;;;;;;;;;;;;1912831;28;7009;-63
2023/05/31 00:28:21;;;;;;;;;;;;;;;;;;1912903;28;7034;-65
2023/05/31 00:29:18;;;;;;;;;;;;;;;;;;1912139;28;7009;-65
2023/05/31 00:30:15;;;;;;;;;;;;;;;;;;1912821;28;7037;-64
2023/05/31 00:31:13;;;;;;;;;;;;;;;;;;1912731;28;7029;-65
2023/05/31 00:32:10;;;;;;;;;;;;;;;;;;1912842;28;7005;-66
2023/05/31 00:33:08;;;;;;;;;;;;;;;;;;1913136;28;7039;-64
2023/05/31 00:34:05;;;;;;;;;;;;;;;;;;1912822;28;7109;-64
2023/05/31 00:35:03;;;;;;;;;;;;;;;;;;1911371;28;7148;-65
2023/05/31 00:36:01;;;;;;;;;;;;;;;;;;1913222;28;7085;-64
2023/05/31 00:36:58;;;;;;;;;;;;;;;;;;1912924;28;7001;-66
2023/05/31 00:37:56;;;;;;;;;;;;;;;;;;1912370;28;7005;-66
2023/05/31 00:38:53;;;;;;;;;;;;;;;;;;1912422;28;7010;-66
2023/05/31 00:39:50;;;;;;;;;;;;;;;;;;1912326;28;7037;-66
2023/05/31 00:40:48;;;;;;;;;;;;;;;;;;1911818;28;7042;-65
2023/05/31 00:41:45;;;;;;;;;;;;;;;;;;1911688;28;7006;-65
2023/05/31 00:42:43;;;;;;;;;;;;;;;;;;1912715;28;7120;-64
2023/05/31 00:43:40;;;;;;;;;;;;;;;;;;1911732;28;7042;-64
2023/05/31 00:44:37;;;;;;;;;;;;;;;;;;1912268;28;7092;-65
2023/05/31 00:45:35;;;;;;;;;;;;;;;;;;1910476;28;7136;-64
2023/05/31 00:46:34;;;;;;;;;;;;;;;;;;1912720;28;8067;-67
2023/05/31 00:47:32;;;;;;;;;;;;;;;;;;1912610;28;7129;-64
2023/05/31 00:48:30;;;;;;;;;;;;;;;;;;1912363;28;7013;-65
2023/05/31 00:49:28;;;;;;;;;;;;;;;;;;1912707;28;7316;-65
2023/05/31 00:50:26;;;;;;;;;;;;;;;;;;1912252;28;7005;-64
2023/05/31 00:51:25;;;;;;;;;;;;;;;;;;1912690;28;7009;-66
2023/05/31 00:52:23;;;;;;;;;;;;;;;;;;1912149;28;7124;-65
2023/05/31 00:53:22;;;;;;;;;;;;;;;;;;1912441;28;7103;-64
2023/05/31 00:54:19;;;;;;;;;;;;;;;;;;1912416;28;7029;-66
2023/05/31 00:55:17;;;;;;;;;;;;;;;;;;1912239;28;7005;-64
2023/05/31 00:56:15;;;;;;;;;;;;;;;;;;1912747;28;7372;-65
2023/05/31 00:57:13;;;;;;;;;;;;;;;;;;1913301;28;7088;-64
2023/05/31 00:58:10;;;;;;;;;;;;;;;;;;1912197;28;7014;-64
2023/05/31 00:59:08;;;;;;;;;;;;;;;;;;1911544;28;7092;-66
2023/05/31 01:00:06;;;;;;;;;;;;;;;;;;1911304;28;7130;-64
2023/05/31 01:01:03;;;;;;;;;;;;;;;;;;1912062;28;7117;-66
2023/05/31 01:02:03;;;;;;;;;;;;;;;;;;1912629;28;8220;-63
2023/05/31 01:03:02;;;;;;;;;;;;;;;;;;1912822;28;7081;-65
2023/05/31 01:04:01;;;;;;;;;;;;;;;;;;1912388;28;8042;-64
2023/05/31 01:05:00;;;;;;;;;;;;;;;;;;1912096;28;7157;-66
2023/05/31 01:05:57;;;;;;;;;;;;;;;;;;1911795;28;8222;-65
2023/05/31 01:06:56;;;;;;;;;;;;;;;;;;1909769;28;7005;-64
2023/05/31 01:07:54;;;;;;;;;;;;;;;;;;1911942;28;8047;-66
2023/05/31 01:08:51;;;;;;;;;;;;;;;;;;1912805;28;7415;-66
2023/05/31 01:09:49;;;;;;;;;;;;;;;;;;1912108;28;7023;-66
2023/05/31 01:10:50;;;;;;;;;;;;;;;;;;1912787;28;7344;-65
2023/05/31 01:11:53;;;;;;;;;;;;;;;;;;1912805;28;7042;-65
2023/05/31 01:13:11;;;;;;;;;;;;;;;;;;1912493;28;7109;-63
2023/05/31 01:14:17;;;;;;;;;;;;;;;;;;1912340;28;7025;-63
2023/05/31 01:15:53;;;;;;;;;;;;;;;;;;1912190;28;8011;-64
2023/05/31 01:16:54;;;;;;;;;;;;;;;;;;1902510;28;7128;-64
2023/05/31 01:18:01;;;;;;;;;;;;;;;;;;1900912;28;7025;-65
2023/05/31 01:19:05;;;;;;;;;;;;;;;;;;1903449;28;7045;-64
2023/05/31 01:20:10;;;;;;;;;;;;;;;;;;1903483;28;7005;-64
2023/05/31 01:21:09;;;;;;;;;;;;;;;;;;1896007;28;7009;-64
2023/05/31 01:22:17;;;;;;;;;;;;;;;;;;1896773;28;7275;-65
2023/05/31 01:23:43;;;;;;;;;;;;;;;;;;1911722;28;7081;-65
2023/05/31 01:24:52;;;;;;;;;;;;;;;;;;1902393;28;7093;-64
2023/05/31 01:25:50;;;;;;;;;;;;;;;;;;1903694;28;7072;-65
2023/05/31 01:26:49;;;;;;;;;;;;;;;;;;1911165;28;7034;-65
2023/05/31 01:27:49;;;;;;;;;;;;;;;;;;1912467;28;7014;-64
2023/05/31 01:28:53;;;;;;;;;;;;;;;;;;1910894;28;7001;-63
2023/05/31 01:29:52;;;;;;;;;;;;;;;;;;1912007;28;7001;-64
2023/05/31 01:30:52;;;;;;;;;;;;;;;;;;1912491;28;7096;-63
2023/05/31 01:31:51;;;;;;;;;;;;;;;;;;1910228;28;7009;-66
2023/05/31 01:32:51;;;;;;;;;;;;;;;;;;1912557;28;7005;-64
2023/05/31 01:33:50;;;;;;;;;;;;;;;;;;1912295;28;7005;-65
2023/05/31 01:34:48;;;;;;;;;;;;;;;;;;1911842;28;7017;-66
2023/05/31 01:35:46;;;;;;;;;;;;;;;;;;1912652;28;8101;-64
2023/05/31 01:36:44;;;;;;;;;;;;;;;;;;1912509;28;7156;-66
2023/05/31 01:37:41;;;;;;;;;;;;;;;;;;1911964;28;7147;-65
2023/05/31 01:38:39;;;;;;;;;;;;;;;;;;1912757;28;7096;-66
2023/05/31 01:39:37;;;;;;;;;;;;;;;;;;1911907;28;7009;-65
2023/05/31 01:40:35;;;;;;;;;;;;;;;;;;1911937;28;7073;-65
2023/05/31 01:41:36;;;;;;;;;;;;;;;;;;1912541;28;7009;-64
2023/05/31 01:42:34;;;;;;;;;;;;;;;;;;1911884;28;7327;-65
2023/05/31 01:43:33;;;;;;;;;;;;;;;;;;1910863;28;7033;-65
2023/05/31 01:44:32;;;;;;;;;;;;;;;;;;1912034;28;7049;-65
2023/05/31 01:45:30;;;;;;;;;;;;;;;;;;1911675;28;8023;-64
2023/05/31 01:46:28;;;;;;;;;;;;;;;;;;1912501;28;7312;-64
2023/05/31 01:47:25;;;;;;;;;;;;;;;;;;1912497;28;7001;-66
2023/05/31 01:48:24;;;;;;;;;;;;;;;;;;1912204;28;7030;-65
2023/05/31 01:49:23;;;;;;;;;;;;;;;;;;1912646;28;7100;-66
2023/05/31 01:50:20;;;;;;;;;;;;;;;;;;1911809;28;7092;-64
2023/05/31 01:51:19;;;;;;;;;;;;;;;;;;1911782;28;7070;-65
2023/05/31 01:52:17;;;;;;;;;;;;;;;;;;1911182;28;7184;-64
2023/05/31 01:53:15;;;;;;;;;;;;;;;;;;1911926;28;7205;-66
2023/05/31 01:54:12;;;;;;;;;;;;;;;;;;1912736;28;7024;-65
2023/05/31 01:55:10;;;;;;;;;;;;;;;;;;1912422;28;7046;-64
2023/05/31 01:56:08;;;;;;;;;;;;;;;;;;1911212;28;7005;-66
2023/05/31 01:57:06;;;;;;;;;;;;;;;;;;1911797;28;7112;-64
2023/05/31 01:58:05;;;;;;;;;;;;;;;;;;1912016;28;7005;-63
2023/05/31 01:59:06;;;;;;;;;;;;;;;;;;1911853;28;7025;-64
2023/05/31 02:00:06;;;;;;;;;;;;;;;;;;1911948;28;7112;-66
2023/05/31 02:01:05;;;;;;;;;;;;;;;;;;1912181;28;7994;-66
2023/05/31 02:02:05;;;;;;;;;;;;;;;;;;1912979;28;7025;-65
2023/05/31 02:03:04;;;;;;;;;;;;;;;;;;1912308;28;7009;-65
2023/05/31 02:04:01;;;;;;;;;;;;;;;;;;1912676;28;7009;-64
2023/05/31 02:05:11;;;;;;;;;;;;;;;;;;1911964;28;7092;-65
2023/05/31 02:06:12;;;;;;;;;;;;;;;;;;1911987;28;7151;-65
2023/05/31 02:07:12;;;;;;;;;;;;;;;;;;1911594;28;7131;-67
2023/05/31 02:08:10;;;;;;;;;;;;;;;;;;1912410;28;7132;-64
2023/05/31 02:09:08;;;;;;;;;;;;;;;;;;1911344;28;8473;-64
2023/05/31 02:10:05;;;;;;;;;;;;;;;;;;1912113;28;7005;-64
2023/05/31 02:11:03;;;;;;;;;;;;;;;;;;1912349;28;7136;-64
2023/05/31 02:12:00;;;;;;;;;;;;;;;;;;1912305;28;8045;-65
2023/05/31 02:12:58;;;;;;;;;;;;;;;;;;1912178;28;8030;-64
2023/05/31 02:13:55;;;;;;;;;;;;;;;;;;1912053;28;7009;-64
2023/05/31 02:14:53;;;;;;;;;;;;;;;;;;1912246;28;7084;-65
2023/05/31 02:15:50;;;;;;;;;;;;;;;;;;1913056;28;7028;-65
2023/05/31 02:16:47;;;;;;;;;;;;;;;;;;1913531;28;7042;-64
2023/05/31 02:17:46;;;;;;;;;;;;;;;;;;1913871;28;8122;-63
2023/05/31 02:18:44;;;;;;;;;;;;;;;;;;1912942;28;7040;-64
2023/05/31 02:19:42;;;;;;;;;;;;;;;;;;1913001;28;7005;-66
2023/05/31 02:20:39;;;;;;;;;;;;;;;;;;1913318;28;7030;-65
2023/05/31 02:21:37;;;;;;;;;;;;;;;;;;1913466;28;7009;-63
2023/05/31 02:22:34;;;;;;;;;;;;;;;;;;1913938;28;7302;-66
2023/05/31 02:23:32;;;;;;;;;;;;;;;;;;1913464;28;8142;-63
2023/05/31 02:24:29;;;;;;;;;;;;;;;;;;1914108;28;7005;-65
2023/05/31 02:25:26;;;;;;;;;;;;;;;;;;1913358;28;7383;-64
2023/05/31 02:26:24;;;;;;;;;;;;;;;;;;1913772;28;7084;-65
2023/05/31 02:27:22;;;;;;;;;;;;;;;;;;1912254;28;7415;-65
2023/05/31 02:28:19;;;;;;;;;;;;;;;;;;1913638;28;7029;-63
2023/05/31 02:29:16;;;;;;;;;;;;;;;;;;1912458;28;7005;-66
2023/05/31 02:30:14;;;;;;;;;;;;;;;;;;1913718;28;8138;-65
2023/05/31 02:31:11;;;;;;;;;;;;;;;;;;1914252;28;9154;-66
2023/05/31 02:32:09;;;;;;;;;;;;;;;;;;1913457;28;8007;-66
2023/05/31 02:33:07;;;;;;;;;;;;;;;;;;1912973;28;7136;-65
2023/05/31 02:34:04;;;;;;;;;;;;;;;;;;1910533;28;7084;-64
2023/05/31 02:35:06;;;;;;;;;;;;;;;;;;1914388;28;7191;-66
2023/05/31 02:36:03;;;;;;;;;;;;;;;;;;1913421;28;7033;-64
2023/05/31 02:37:01;;;;;;;;;;;;;;;;;;1914090;28;7009;-63
2023/05/31 02:37:58;;;;;;;;;;;;;;;;;;1912588;28;7013;-65
2023/05/31 02:38:56;;;;;;;;;;;;;;;;;;1914147;28;7009;-65
2023/05/31 02:39:54;;;;;;;;;;;;;;;;;;1914139;28;7005;-65
2023/05/31 02:40:51;;;;;;;;;;;;;;;;;;1913565;28;8095;-65
2023/05/31 02:41:49;;;;;;;;;;;;;;;;;;1914078;28;8941;-64
2023/05/31 02:42:46;;;;;;;;;;;;;;;;;;1913830;28;8027;-65
2023/05/31 02:43:44;;;;;;;;;;;;;;;;;;1912237;28;7008;-63
2023/05/31 02:44:41;;;;;;;;;;;;;;;;;;1913682;28;7020;-64
2023/05/31 02:45:39;;;;;;;;;;;;;;;;;;1913583;28;7153;-64
2023/05/31 02:46:36;;;;;;;;;;;;;;;;;;1913391;28;7131;-64
2023/05/31 02:47:36;;;;;;;;;;;;;;;;;;1913619;28;7212;-66
2023/05/31 02:48:33;;;;;;;;;;;;;;;;;;1913584;28;8048;-65
2023/05/31 02:49:31;;;;;;;;;;;;;;;;;;1913882;28;7073;-65
2023/05/31 02:50:28;;;;;;;;;;;;;;;;;;1913149;28;7030;-64
2023/05/31 02:51:26;;;;;;;;;;;;;;;;;;1913421;28;7041;-65
2023/05/31 02:52:24;;;;;;;;;;;;;;;;;;1914160;28;7541;-65
2023/05/31 02:53:22;;;;;;;;;;;;;;;;;;1913997;28;8087;-65
2023/05/31 02:54:19;;;;;;;;;;;;;;;;;;1913883;28;7316;-65
2023/05/31 02:55:17;;;;;;;;;;;;;;;;;;1913334;28;7546;-65
2023/05/31 02:56:14;;;;;;;;;;;;;;;;;;1913456;28;7005;-64
2023/05/31 02:57:12;;;;;;;;;;;;;;;;;;1913899;28;7002;-65
2023/05/31 02:58:10;;;;;;;;;;;;;;;;;;1914265;28;7001;-65
2023/05/31 02:59:08;;;;;;;;;;;;;;;;;;1911465;28;7013;-64
2023/05/31 03:00:10;;;;;;;;;;;;;;;;;;1914563;28;8069;-66
2023/05/31 03:01:08;;;;;;;;;;;;;;;;;;1913460;28;7096;-64
2023/05/31 03:02:05;;;;;;;;;;;;;;;;;;1913590;28;7054;-66
2023/05/31 03:03:03;;;;;;;;;;;;;;;;;;1914135;28;7009;-65
2023/05/31 03:04:00;;;;;;;;;;;;;;;;;;1911100;28;7120;-65
2023/05/31 03:04:58;;;;;;;;;;;;;;;;;;1911856;28;8126;-63
2023/05/31 03:05:55;;;;;;;;;;;;;;;;;;1913114;28;8022;-63
2023/05/31 03:06:53;;;;;;;;;;;;;;;;;;1913700;28;7001;-65
2023/05/31 03:07:50;;;;;;;;;;;;;;;;;;1913389;28;8014;-66
2023/05/31 03:08:48;;;;;;;;;;;;;;;;;;1913837;28;8010;-64
2023/05/31 03:09:46;;;;;;;;;;;;;;;;;;1912299;28;7041;-65
2023/05/31 03:10:43;;;;;;;;;;;;;;;;;;1913436;28;7009;-65
2023/05/31 03:11:41;;;;;;;;;;;;;;;;;;1913575;28;7009;-66
2023/05/31 03:12:39;;;;;;;;;;;;;;;;;;1913671;28;7133;-65
2023/05/31 03:13:36;;;;;;;;;;;;;;;;;;1913670;28;7008;-64
2023/05/31 03:14:34;;;;;;;;;;;;;;;;;;1913209;28;7127;-64
2023/05/31 03:15:32;;;;;;;;;;;;;;;;;;1913338;28;7042;-64
2023/05/31 03:16:29;;;;;;;;;;;;;;;;;;1913960;28;7120;-64
2023/05/31 03:17:27;;;;;;;;;;;;;;;;;;1913761;28;7049;-64
2023/05/31 03:18:24;;;;;;;;;;;;;;;;;;1913779;28;7703;-65
2023/05/31 03:19:22;;;;;;;;;;;;;;;;;;1913551;28;7121;-66
2023/05/31 03:20:19;;;;;;;;;;;;;;;;;;1913621;28;7041;-64
2023/05/31 03:21:17;;;;;;;;;;;;;;;;;;1913246;28;7092;-64
2023/05/31 03:22:14;;;;;;;;;;;;;;;;;;1913158;28;7013;-64
2023/05/31 03:23:12;;;;;;;;;;;;;;;;;;1912446;28;8504;-66
2023/05/31 03:24:09;;;;;;;;;;;;;;;;;;1913523;28;7164;-63
2023/05/31 03:25:07;;;;;;;;;;;;;;;;;;1913274;28;7009;-64
2023/05/31 03:26:05;;;;;;;;;;;;;;;;;;1914267;28;7096;-64
2023/05/31 03:27:02;;;;;;;;;;;;;;;;;;1910689;28;7089;-65
2023/05/31 03:28:00;;;;;;;;;;;;;;;;;;1912923;28;7964;-66
2023/05/31 03:28:57;;;;;;;;;;;;;;;;;;1911266;28;8213;-64
2023/05/31 03:29:55;;;;;;;;;;;;;;;;;;1912649;28;7066;-65
2023/05/31 03:30:52;;;;;;;;;;;;;;;;;;1910791;28;8035;-67
2023/05/31 03:31:50;;;;;;;;;;;;;;;;;;1911176;28;7009;-64
2023/05/31 03:32:47;;;;;;;;;;;;;;;;;;1910870;28;7005;-64
2023/05/31 03:33:45;;;;;;;;;;;;;;;;;;1913936;28;7132;-65
2023/05/31 03:34:42;;;;;;;;;;;;;;;;;;1913016;28;7017;-64
2023/05/31 03:35:40;;;;;;;;;;;;;;;;;;1913763;28;7005;-64
2023/05/31 03:36:37;;;;;;;;;;;;;;;;;;1912848;28;7138;-66
2023/05/31 03:37:35;;;;;;;;;;;;;;;;;;1913321;28;7093;-65
2023/05/31 03:38:32;;;;;;;;;;;;;;;;;;1913533;28;7117;-65
2023/05/31 03:39:29;;;;;;;;;;;;;;;;;;1914009;28;7124;-64
2023/05/31 03:40:27;;;;;;;;;;;;;;;;;;1913182;28;7092;-65
2023/05/31 03:41:25;;;;;;;;;;;;;;;;;;1912401;28;7185;-65
2023/05/31 03:42:23;;;;;;;;;;;;;;;;;;1912290;28;8000;-65
2023/05/31 03:43:20;;;;;;;;;;;;;;;;;;1911586;28;7010;-63
2023/05/31 03:44:18;;;;;;;;;;;;;;;;;;1913381;28;8054;-65
2023/05/31 03:45:15;;;;;;;;;;;;;;;;;;1912878;28;7009;-65
2023/05/31 03:46:13;;;;;;;;;;;;;;;;;;1913851;28;7092;-63
2023/05/31 03:47:11;;;;;;;;;;;;;;;;;;1913736;28;7009;-65
2023/05/31 03:48:08;;;;;;;;;;;;;;;;;;1913177;28;7025;-65
2023/05/31 03:49:06;;;;;;;;;;;;;;;;;;1913417;28;7029;-65
2023/05/31 03:50:04;;;;;;;;;;;;;;;;;;1913542;28;7021;-64
2023/05/31 03:51:02;;;;;;;;;;;;;;;;;;1913230;28;7022;-65
2023/05/31 03:51:59;;;;;;;;;;;;;;;;;;1913297;28;7107;-65
2023/05/31 03:52:57;;;;;;;;;;;;;;;;;;1913488;28;7073;-64
2023/05/31 03:53:54;;;;;;;;;;;;;;;;;;1913645;28;7137;-65
2023/05/31 03:54:52;;;;;;;;;;;;;;;;;;1913534;28;7073;-66
2023/05/31 03:55:49;;;;;;;;;;;;;;;;;;1912109;28;7569;-63
2023/05/31 03:56:46;;;;;;;;;;;;;;;;;;1912545;28;7029;-66
2023/05/31 03:57:44;;;;;;;;;;;;;;;;;;1912833;28;7160;-64
2023/05/31 03:58:42;;;;;;;;;;;;;;;;;;1913606;28;7125;-65
2023/05/31 03:59:39;;;;;;;;;;;;;;;;;;1913305;28;7025;-65
2023/05/31 04:00:37;;;;;;;;;;;;;;;;;;1913966;28;7045;-64
2023/05/31 04:01:34;;;;;;;;;;;;;;;;;;1913293;28;7010;-65
2023/05/31 04:02:32;;;;;;;;;;;;;;;;;;1913649;28;7001;-64
2023/05/31 04:03:29;;;;;;;;;;;;;;;;;;1912690;28;7013;-66
2023/05/31 04:04:27;;;;;;;;;;;;;;;;;;1913258;28;7019;-66
2023/05/31 04:05:24;;;;;;;;;;;;;;;;;;1912887;28;7093;-64
2023/05/31 04:06:22;;;;;;;;;;;;;;;;;;1913325;28;8030;-65
2023/05/31 04:07:19;;;;;;;;;;;;;;;;;;1913585;28;7127;-64
2023/05/31 04:08:17;;;;;;;;;;;;;;;;;;1912889;28;7084;-66
2023/05/31 04:09:14;;;;;;;;;;;;;;;;;;1911957;28;7088;-64
2023/05/31 04:10:12;;;;;;;;;;;;;;;;;;1913245;28;8047;-63
2023/05/31 04:11:09;;;;;;;;;;;;;;;;;;1912751;28;7886;-65
2023/05/31 04:12:07;;;;;;;;;;;;;;;;;;1912242;28;7013;-66
2023/05/31 04:13:04;;;;;;;;;;;;;;;;;;1912734;28;7133;-64
2023/05/31 04:14:02;;;;;;;;;;;;;;;;;;1913274;28;7009;-63
2023/05/31 04:15:00;;;;;;;;;;;;;;;;;;1912529;28;7096;-66
2023/05/31 04:15:57;;;;;;;;;;;;;;;;;;1913135;28;7037;-66
2023/05/31 04:16:54;;;;;;;;;;;;;;;;;;1912167;28;7132;-66
2023/05/31 04:17:52;;;;;;;;;;;;;;;;;;1912578;28;7009;-65
2023/05/31 04:18:49;;;;;;;;;;;;;;;;;;1912974;28;7005;-64
2023/05/31 04:19:47;;;;;;;;;;;;;;;;;;1912132;28;8495;-65
2023/05/31 04:20:44;;;;;;;;;;;;;;;;;;1913059;28;7034;-66
2023/05/31 04:21:42;;;;;;;;;;;;;;;;;;1912789;28;7092;-65
2023/05/31 04:22:39;;;;;;;;;;;;;;;;;;1913212;28;7667;-66
2023/05/31 04:23:36;;;;;;;;;;;;;;;;;;1913405;28;7005;-66
2023/05/31 04:24:34;;;;;;;;;;;;;;;;;;1912228;28;7076;-64
2023/05/31 04:25:31;;;;;;;;;;;;;;;;;;1913094;28;7076;-64
2023/05/31 04:26:29;;;;;;;;;;;;;;;;;;1913256;28;7025;-66
2023/05/31 04:27:27;;;;;;;;;;;;;;;;;;1913305;28;7057;-64
2023/05/31 04:28:24;;;;;;;;;;;;;;;;;;1927375;28;7045;-64
2023/05/31 04:29:22;;;;;;;;;;;;;;;;;;1927055;28;7013;-64
2023/05/31 04:30:20;;;;;;;;;;;;;;;;;;1914295;28;7005;-65
2023/05/31 04:31:18;;;;;;;;;;;;;;;;;;1912499;28;7035;-66
2023/05/31 04:32:15;;;;;;;;;;;;;;;;;;1913345;28;7034;-65
2023/05/31 04:33:13;;;;;;;;;;;;;;;;;;1913017;28;7005;-66
2023/05/31 04:34:13;;;;;;;;;;;;;;;;;;1913546;28;7092;-64
2023/05/31 04:35:11;;;;;;;;;;;;;;;;;;1912741;28;7041;-65
2023/05/31 04:36:08;;;;;;;;;;;;;;;;;;1913095;28;7092;-66
2023/05/31 04:37:07;;;;;;;;;;;;;;;;;;1911769;28;7005;-66
2023/05/31 04:38:04;;;;;;;;;;;;;;;;;;1912000;28;7006;-65
2023/05/31 04:39:12;;;;;;;;;;;;;;;;;;1911881;28;7089;-65
2023/05/31 04:40:10;;;;;;;;;;;;;;;;;;1912926;28;8034;-63
2023/05/31 04:41:07;;;;;;;;;;;;;;;;;;1909807;28;8030;-65
2023/05/31 04:42:05;;;;;;;;;;;;;;;;;;1913419;28;7092;-65
2023/05/31 04:43:03;;;;;;;;;;;;;;;;;;1913030;28;8008;-65
2023/05/31 04:44:00;;;;;;;;;;;;;;;;;;1911276;28;7077;-65
2023/05/31 04:44:58;;;;;;;;;;;;;;;;;;1912788;28;7005;-66
2023/05/31 04:45:55;;;;;;;;;;;;;;;;;;1912108;28;7463;-66
2023/05/31 04:46:53;;;;;;;;;;;;;;;;;;1913018;28;7147;-66
2023/05/31 04:47:51;;;;;;;;;;;;;;;;;;1912919;28;7005;-63
2023/05/31 04:48:49;;;;;;;;;;;;;;;;;;1913178;28;7332;-66
2023/05/31 04:49:47;;;;;;;;;;;;;;;;;;1912876;28;7033;-65
2023/05/31 04:50:51;;;;;;;;;;;;;;;;;;1913095;28;7139;-63
2023/05/31 04:51:49;;;;;;;;;;;;;;;;;;1912243;28;7122;-65
2023/05/31 04:52:46;;;;;;;;;;;;;;;;;;1913037;28;7013;-64
2023/05/31 04:53:47;;;;;;;;;;;;;;;;;;1912683;28;7045;-64
2023/05/31 04:54:44;;;;;;;;;;;;;;;;;;1913160;28;8017;-66
2023/05/31 04:55:42;;;;;;;;;;;;;;;;;;1911158;28;7084;-65
2023/05/31 04:56:40;;;;;;;;;;;;;;;;;;1912828;28;7963;-66
2023/05/31 04:57:37;;;;;;;;;;;;;;;;;;1912971;28;7329;-65
2023/05/31 04:58:35;;;;;;;;;;;;;;;;;;1912628;28;7001;-66
2023/05/31 04:59:32;;;;;;;;;;;;;;;;;;1913149;28;7096;-64
2023/05/31 05:00:29;;;;;;;;;;;;;;;;;;1912312;28;7105;-64
2023/05/31 05:01:27;;;;;;;;;;;;;;;;;;1913158;28;7104;-64
2023/05/31 05:02:26;;;;;;;;;;;;;;;;;;1912480;28;7072;-65
2023/05/31 05:03:24;;;;;;;;;;;;;;;;;;1912495;28;7045;-66
2023/05/31 05:04:21;;;;;;;;;;;;;;;;;;1913211;28;7001;-64
2023/05/31 05:05:19;;;;;;;;;;;;;;;;;;1912614;28;7001;-65
2023/05/31 05:06:17;;;;;;;;;;;;;;;;;;1912885;28;7092;-65
2023/05/31 05:07:16;;;;;;;;;;;;;;;;;;1912825;28;7300;-64
2023/05/31 05:08:13;;;;;;;;;;;;;;;;;;1912652;28;7009;-65
2023/05/31 05:09:11;;;;;;;;;;;;;;;;;;1911670;28;7208;-64
2023/05/31 05:10:08;;;;;;;;;;;;;;;;;;1912368;28;7009;-66
2023/05/31 05:11:06;;;;;;;;;;;;;;;;;;1913395;28;7001;-65
2023/05/31 05:12:03;;;;;;;;;;;;;;;;;;1913046;28;7037;-65
2023/05/31 05:13:01;;;;;;;;;;;;;;;;;;1912192;28;7112;-67
2023/05/31 05:13:58;;;;;;;;;;;;;;;;;;1911877;28;7021;-64
2023/05/31 05:14:56;;;;;;;;;;;;;;;;;;1912185;28;7386;-64
2023/05/31 05:15:53;;;;;;;;;;;;;;;;;;1911946;28;7084;-67
2023/05/31 05:16:50;;;;;;;;;;;;;;;;;;1912693;28;7002;-66
2023/05/31 05:17:48;;;;;;;;;;;;;;;;;;1913053;28;7033;-67
2023/05/31 05:18:46;;;;;;;;;;;;;;;;;;1913083;28;7005;-65
2023/05/31 05:19:43;;;;;;;;;;;;;;;;;;1912744;28;7009;-64
2023/05/31 05:20:41;;;;;;;;;;;;;;;;;;1912052;28;7005;-65
2023/05/31 05:21:38;;;;;;;;;;;;;;;;;;1912570;28;7988;-66
2023/05/31 05:22:36;;;;;;;;;;;;;;;;;;1912541;28;7113;-66
2023/05/31 05:23:35;;;;;;;;;;;;;;;;;;1912656;28;7009;-64
2023/05/31 05:24:32;;;;;;;;;;;;;;;;;;1913040;28;7013;-65
2023/05/31 05:25:29;;;;;;;;;;;;;;;;;;1912513;28;7009;-64
2023/05/31 05:26:27;;;;;;;;;;;;;;;;;;1912414;28;7005;-65
2023/05/31 05:27:24;;;;;;;;;;;;;;;;;;1910419;28;7034;-65
2023/05/31 05:28:22;;;;;;;;;;;;;;;;;;1912762;28;7042;-65
2023/05/31 05:29:19;;;;;;;;;;;;;;;;;;1912009;28;7009;-64
2023/05/31 05:30:17;;;;;;;;;;;;;;;;;;1912605;28;7057;-64
2023/05/31 05:31:14;;;;;;;;;;;;;;;;;;1913106;28;7013;-65
2023/05/31 05:32:12;;;;;;;;;;;;;;;;;;1913096;28;7029;-65
2023/05/31 05:33:09;;;;;;;;;;;;;;;;;;1912509;28;7001;-67
2023/05/31 05:34:07;;;;;;;;;;;;;;;;;;1912818;28;7092;-64
2023/05/31 05:35:05;;;;;;;;;;;;;;;;;;1912611;28;7144;-65
2023/05/31 05:36:03;;;;;;;;;;;;;;;;;;1912747;28;7100;-65
2023/05/31 05:37:00;;;;;;;;;;;;;;;;;;1912604;28;7132;-66
2023/05/31 05:37:59;;;;;;;;;;;;;;;;;;1912361;28;7005;-64
2023/05/31 05:39:03;;;;;;;;;;;;;;;;;;1912918;28;7005;-64
2023/05/31 05:40:01;;;;;;;;;;;;;;;;;;1912818;28;7335;-66
2023/05/31 05:40:58;;;;;;;;;;;;;;;;;;1912589;28;7041;-65
2023/05/31 05:41:56;;;;;;;;;;;;;;;;;;1912187;28;7029;-65
2023/05/31 05:42:53;;;;;;;;;;;;;;;;;;1912603;28;8066;-65
2023/05/31 05:43:51;;;;;;;;;;;;;;;;;;1911302;28;7037;-65
2023/05/31 05:44:48;;;;;;;;;;;;;;;;;;1912605;28;7095;-65
2023/05/31 05:45:46;;;;;;;;;;;;;;;;;;1912473;28;7282;-64
2023/05/31 05:46:43;;;;;;;;;;;;;;;;;;1912937;28;8308;-66
2023/05/31 05:47:44;;;;;;;;;;;;;;;;;;1912572;28;7128;-64
2023/05/31 05:48:42;;;;;;;;;;;;;;;;;;1912597;28;7005;-65
2023/05/31 05:49:40;;;;;;;;;;;;;;;;;;1912480;28;7001;-66
2023/05/31 05:50:37;;;;;;;;;;;;;;;;;;1912797;28;7153;-65
2023/05/31 05:51:35;;;;;;;;;;;;;;;;;;1914225;28;7092;-65
2023/05/31 05:52:32;;;;;;;;;;;;;;;;;;1914149;28;7013;-64
2023/05/31 05:53:30;;;;;;;;;;;;;;;;;;1914645;28;8091;-66
2023/05/31 05:54:27;;;;;;;;;;;;;;;;;;1914098;28;7005;-67
2023/05/31 05:55:25;;;;;;;;;;;;;;;;;;1912366;28;8001;-66
2023/05/31 05:56:22;;;;;;;;;;;;;;;;;;1913212;28;7013;-63
2023/05/31 05:57:20;;;;;;;;;;;;;;;;;;1913527;28;7009;-64
2023/05/31 05:58:18;;;;;;;;;;;;;;;;;;1913928;28;7005;-63
2023/05/31 05:59:15;;;;;;;;;;;;;;;;;;1913955;28;7010;-65
2023/05/31 06:00:15;;;;;;;;;;;;;;;;;;1914912;28;7013;-64
2023/05/31 06:01:14;;;;;;;;;;;;;;;;;;1914337;28;7005;-63
2023/05/31 06:02:12;;;;;;;;;;;;;;;;;;1914229;28;7013;-65
2023/05/31 06:03:09;;;;;;;;;;;;;;;;;;1914288;28;7009;-64
2023/05/31 06:04:06;;;;;;;;;;;;;;;;;;1914168;28;7005;-64
2023/05/31 06:05:04;;;;;;;;;;;;;;;;;;1914188;28;7940;-64
2023/05/31 06:06:02;;;;;;;;;;;;;;;;;;1913980;28;7944;-64
2023/05/31 06:06:59;;;;;;;;;;;;;;;;;;1914276;28;7120;-64
2023/05/31 06:07:57;;;;;;;;;;;;;;;;;;1914043;28;7096;-64
2023/05/31 06:08:54;;;;;;;;;;;;;;;;;;1914034;28;7104;-66
2023/05/31 06:09:53;;;;;;;;;;;;;;;;;;1913372;28;7299;-65
2023/05/31 06:10:50;;;;;;;;;;;;;;;;;;1913981;28;8040;-64
2023/05/31 06:11:47;;;;;;;;;;;;;;;;;;1913524;28;7013;-63
2023/05/31 06:12:45;;;;;;;;;;;;;;;;;;1914321;28;7013;-63
2023/05/31 06:13:42;;;;;;;;;;;;;;;;;;1914443;28;7187;-64
2023/05/31 06:14:40;;;;;;;;;;;;;;;;;;1914011;28;7006;-63
2023/05/31 06:15:37;;;;;;;;;;;;;;;;;;1913641;28;7327;-64
2023/05/31 06:16:34;;;;;;;;;;;;;;;;;;1914310;28;7005;-63
2023/05/31 06:17:32;;;;;;;;;;;;;;;;;;1913750;28;8079;-65
2023/05/31 06:18:29;;;;;;;;;;;;;;;;;;1914230;28;7005;-64
2023/05/31 06:19:27;;;;;;;;;;;;;;;;;;1913315;28;7005;-62
2023/05/31 06:20:25;;;;;;;;;;;;;;;;;;1913852;28;7021;-63
2023/05/31 06:21:23;;;;;;;;;;;;;;;;;;1914270;28;7001;-62
2023/05/31 06:22:20;;;;;;;;;;;;;;;;;;1913929;28;7005;-65
2023/05/31 06:23:18;;;;;;;;;;;;;;;;;;1913540;28;7091;-64
2023/05/31 06:24:15;;;;;;;;;;;;;;;;;;1913958;28;7005;-62
2023/05/31 06:25:13;;;;;;;;;;;;;;;;;;1913833;28;7009;-65
2023/05/31 06:26:11;;;;;;;;;;;;;;;;;;1913564;28;7089;-65
2023/05/31 06:27:08;;;;;;;;;;;;;;;;;;1920525;28;7062;-63
2023/05/31 06:28:06;;;;;;;;;;;;;;;;;;1921522;28;8064;-63
2023/05/31 06:29:04;;;;;;;;;;;;;;;;;;1913921;28;7105;-64
2023/05/31 06:30:02;;;;;;;;;;;;;;;;;;1914337;28;7001;-65
2023/05/31 06:31:00;;;;;;;;;;;;;;;;;;1913628;28;7133;-63
2023/05/31 06:31:58;;;;;;;;;;;;;;;;;;1913632;28;7001;-63
2023/05/31 06:32:56;;;;;;;;;;;;;;;;;;1914018;28;7005;-64
2023/05/31 06:33:53;;;;;;;;;;;;;;;;;;1914311;28;7146;-65
2023/05/31 06:34:51;;;;;;;;;;;;;;;;;;1914515;28;7041;-62
2023/05/31 06:35:49;;;;;;;;;;;;;;;;;;1914015;28;7120;-65
2023/05/31 06:36:46;;;;;;;;;;;;;;;;;;1914214;28;7113;-67
2023/05/31 06:37:45;;;;;;;;;;;;;;;;;;1913449;28;7001;-64
2023/05/31 06:38:43;;;;;;;;;;;;;;;;;;1914102;28;7029;-63
2023/05/31 06:39:40;;;;;;;;;;;;;;;;;;1912959;28;7034;-64
2023/05/31 06:40:38;;;;;;;;;;;;;;;;;;1912772;28;7092;-64
2023/05/31 06:41:36;;;;;;;;;;;;;;;;;;1914031;28;7109;-63
2023/05/31 06:42:33;;;;;;;;;;;;;;;;;;1914433;28;7388;-63
2023/05/31 06:43:31;;;;;;;;;;;;;;;;;;1912536;28;7181;-65
2023/05/31 06:44:28;;;;;;;;;;;;;;;;;;1913838;28;7041;-65
2023/05/31 06:45:25;;;;;;;;;;;;;;;;;;1913402;28;7112;-63